Jeromesville, Ohio
Current Conditions -  °F | °C
As of 3:52 AM on Thursday 27 Nov 2014 (Local Time) from KMFD Reporting Station
Haze Haze  
Wind Chill: 22°   Ceiling: 700
Heat Index: 30°   Visibility: 5mi
Dew Point: 28°   Wind: 8mph
Humidity: 92%   Direction: 290°WNW
Pressure: 30.02"   Gusts: NA
Location:  40.8°N, 82.2°W
Report Text: KMFD 270852Z AUTO 29007KT 5SM BR OVC007 M01/M02 A3002 RMK AO2 SLP178 T10111022 55001
Loading
Personal Weather Stations






























Interactive Weather Map New forecast layout! Learn more

10-Day Weather Forecast

Advertisements
Track Severe Weather on mobile